Delta Billie — WDE8059 — position and weather

sailwx.info

Track history (hours):
 
Tides and Currents Weather Stations Pressure Air Temp Water Temp Dewpoint Dewpoint Depression Visibility Wind Speed Wind Dir Waves Ship Positions

Delta Billie

Owner: Baydelta Maritime, San Francicso, CA. More information available from US FCC via Universal Licensing System and Coast Guard Vessel Documentation Center.

Last reported at 2014-Oct-01 03:33 UTC. Time now 2014-Oct-01 04:05 UTC.
Position N 37°48' W 122°24'.

Length 30 m; draft 5.5 m.

Type: Towing. MMSI: 367401030.

Date/timePositionNaut miles runAvg speedWind from/ knotsBaromVisibWave heightAir tempDewpointWater temp
2014-Oct-01 03:33N 37°48' W 122°24'0 0.0
2014-Oct-01 02:33N 37°48' W 122°24'0 0.0
2014-Oct-01 01:33N 37°48' W 122°24'0 0.0
2014-Oct-01 00:33N 37°48' W 122°24'0 0.0
2014-Sep-30 23:33N 37°48' W 122°24'2 1.9
2014-Sep-30 22:33N 37°50' W 122°24'5 5.3
2014-Sep-30 21:33N 37°55' W 122°25'3 2.8
2014-Sep-30 20:34N 37°53' W 122°25'6 6.2
2014-Sep-30 19:33N 37°48' W 122°30'7 7.0
2014-Sep-30 18:33N 37°54' W 122°26'3 3.1
2014-Sep-30 17:33N 37°55' W 122°22'0 0.0
2014-Sep-30 16:33N 37°55' W 122°22'2 2.0
2014-Sep-30 15:34N 37°55' W 122°25'7 7.1
2014-Sep-30 14:33N 37°49' W 122°20'0 0.0
2014-Sep-30 13:33N 37°49' W 122°20'3 3.1
2014-Sep-30 12:34N 37°48' W 122°23'0 0.4
2014-Sep-30 11:33N 37°48' W 122°24'0 0.0
2014-Sep-30 10:33N 37°48' W 122°24'0 0.0
2014-Sep-30 09:33N 37°48' W 122°24'0 0.0
2014-Sep-30 08:33N 37°48' W 122°24'0 0.0
2014-Sep-30 07:33N 37°48' W 122°24'0 0.0
2014-Sep-30 06:33N 37°48' W 122°24'5 4.7
2014-Sep-30 05:33N 37°53' W 122°25'9 9.3
2014-Sep-30 04:33N 38°02' W 122°22'11 9.6
2014-Sep-30 03:26N 38°02' W 122°08'4 0.7
2014-Sep-29 21:30N 38°04' W 122°13'9 9.7
2014-Sep-29 20:33N 38°01' W 122°24'5 5.3
2014-Sep-29 19:33N 37°55' W 122°25'0 0.2
2014-Sep-29 18:33N 37°55' W 122°25'0 0.0
2014-Sep-29 17:33N 37°55' W 122°25'0 0.0
2014-Sep-29 16:33N 37°55' W 122°25'0 0.0
2014-Sep-29 15:33N 37°55' W 122°25'0 0.1
2014-Sep-29 14:33N 37°55' W 122°25'2 2.3
2014-Sep-29 13:33N 37°53' W 122°25'9 9.5
2014-Sep-29 12:33N 37°44' W 122°20'2 1.9
2014-Sep-29 11:33N 37°45' W 122°23'2 1.6
2014-Sep-29 10:33N 37°45' W 122°21'1 0.7
2014-Sep-29 09:33N 37°46' W 122°20'4 3.6
2014-Sep-29 08:33N 37°48' W 122°24'6 5.7
2014-Sep-29 07:33N 37°48' W 122°31'1 1.1
2014-Sep-29 06:33N 37°48' W 122°29'1 0.9
2014-Sep-29 05:33N 37°49' W 122°29'4 4.0
2014-Sep-29 04:33N 37°48' W 122°24'0 0.0
2014-Sep-29 03:33N 37°48' W 122°24'4 4.1
2014-Sep-29 02:33N 37°48' W 122°19'0 0.2
2014-Sep-29 01:33N 37°48' W 122°19'2 1.5
2014-Sep-29 00:33N 37°48' W 122°21'2 2.4
2014-Sep-28 23:33N 37°48' W 122°24'0 0.0
2014-Sep-28 22:33N 37°48' W 122°24'0 0.0
2014-Sep-28 21:33N 37°48' W 122°24'0 0.0
2014-Sep-28 20:33N 37°48' W 122°24'0 0.0
2014-Sep-28 19:33N 37°48' W 122°24'0 0.0
2014-Sep-28 18:33N 37°48' W 122°24'0 0.0
2014-Sep-28 17:33N 37°48' W 122°24'0 0.0
2014-Sep-28 16:33N 37°48' W 122°24'0 0.0
2014-Sep-28 15:33N 37°48' W 122°24'1 0.5
2014-Sep-28 14:33N 37°48' W 122°23'3 2.8
2014-Sep-28 13:33N 37°48' W 122°20'3 3.2
2014-Sep-28 12:33N 37°48' W 122°24'4 3.8
2014-Sep-28 11:33N 37°52' W 122°24'3 3.5
2014-Sep-28 10:33N 37°55' W 122°25'6 6.1
2014-Sep-28 09:33N 37°49' W 122°24'3 3.3
2014-Sep-28 08:33N 37°47' W 122°21'2 2.1
2014-Sep-28 07:33N 37°45' W 122°23'1 1.2
2014-Sep-28 06:33N 37°45' W 122°21'2 1.6
2014-Sep-28 05:33N 37°46' W 122°22'7 7.3
2014-Sep-28 04:33N 37°48' W 122°31'4 3.5
2014-Sep-28 03:33N 37°49' W 122°27'6 5.7
2014-Sep-28 02:33N 37°49' W 122°19'0 0.2
2014-Sep-28 01:34N 37°49' W 122°20'0 0.1
2014-Sep-28 00:33N 37°49' W 122°20'3 3.1
2014-Sep-27 23:34N 37°48' W 122°24'0 0.4
2014-Sep-27 22:33N 37°48' W 122°24'0 0.0
2014-Sep-27 21:33N 37°48' W 122°24'0 0.0
2014-Sep-27 20:33N 37°48' W 122°24'3 3.2
2014-Sep-27 19:34N 37°51' W 122°25'8 8.4
2014-Sep-27 18:33N 37°60' W 122°25'9 6.8
2014-Sep-27 17:15N 38°04' W 122°14'2 2.5
2014-Sep-27 16:26N 38°04' W 122°17'8 0.3
2014-Sep-26 10:25N 38°02' W 122°08'4 0.9
2014-Sep-26 05:30N 38°04' W 122°13'1 0.0
2014-Sep-24 20:12N 38°04' W 122°14'0 0.0
2014-Sep-23 20:06N 38°04' W 122°13'610.2
2014-Sep-23 19:33N 38°03' W 122°20'9 8.6
2014-Sep-23 18:33N 37°55' W 122°25'1 0.6
2014-Sep-23 17:33N 37°56' W 122°25'0 0.1
2014-Sep-23 16:33N 37°56' W 122°25'4 3.5
2014-Sep-23 15:33N 37°52' W 122°24'5 4.9
2014-Sep-23 14:33N 37°49' W 122°20'1 0.7
2014-Sep-23 13:33N 37°49' W 122°19'3 3.0
2014-Sep-23 12:34N 37°48' W 122°23'1 1.0
2014-Sep-23 11:33N 37°48' W 122°24'0 0.0
2014-Sep-23 10:33N 37°48' W 122°24'0 0.0
2014-Sep-23 09:33N 37°48' W 122°24'0 0.0
2014-Sep-23 08:33N 37°48' W 122°24'0 0.0
2014-Sep-23 07:33N 37°48' W 122°24'0 0.0
2014-Sep-23 06:33N 37°48' W 122°24'0 0.0
2014-Sep-23 05:33N 37°48' W 122°24'0 0.0
2014-Sep-23 04:33N 37°48' W 122°24'0 0.0
2014-Sep-23 03:33N 37°48' W 122°24'0 0.0
2014-Sep-23 02:33N 37°48' W 122°24'4 4.0
2014-Sep-23 01:34N 37°48' W 122°19'0 0.1
2014-Sep-23 00:33N 37°48' W 122°19'3 2.9
2014-Sep-22 23:33N 37°48' W 122°22'1110.8
2014-Sep-22 22:33N 37°59' W 122°26'11 2.7
2014-Sep-22 18:28N 38°04' W 122°13'2 0.4
2014-Sep-22 13:23N 38°03' W 122°11'2 0.4
2014-Sep-22 07:28N 38°02' W 122°08'0 0.0
2014-Sep-22 06:14N 38°02' W 122°08'14 2.5
2014-Sep-22 00:23N 38°02' W 121°50'  
Track history (hours):
 
Tides and Currents Weather Stations Pressure Air Temp Water Temp Dewpoint Dewpoint Depression Visibility Wind Speed Wind Dir Waves Ship Positions

Delta Billie

Owner: Baydelta Maritime, San Francicso, CA. More information available from US FCC via Universal Licensing System and Coast Guard Vessel Documentation Center.

Last reported at 2014-Oct-01 03:33 UTC. Time now 2014-Oct-01 04:05 UTC.
Position N 37°48' W 122°24'.

Length 30 m; draft 5.5 m.

Type: Towing. MMSI: 367401030.

Date/timePositionNaut miles runAvg speedWind from/ knotsBaromVisibWave heightAir tempDewpointWater temp
2014-Oct-01 03:33N 37°48' W 122°24'0 0.0
2014-Oct-01 02:33N 37°48' W 122°24'0 0.0
2014-Oct-01 01:33N 37°48' W 122°24'0 0.0
2014-Oct-01 00:33N 37°48' W 122°24'0 0.0
2014-Sep-30 23:33N 37°48' W 122°24'2 1.9
2014-Sep-30 22:33N 37°50' W 122°24'5 5.3
2014-Sep-30 21:33N 37°55' W 122°25'3 2.8
2014-Sep-30 20:34N 37°53' W 122°25'6 6.2
2014-Sep-30 19:33N 37°48' W 122°30'7 7.0
2014-Sep-30 18:33N 37°54' W 122°26'3 3.1
2014-Sep-30 17:33N 37°55' W 122°22'0 0.0
2014-Sep-30 16:33N 37°55' W 122°22'2 2.0
2014-Sep-30 15:34N 37°55' W 122°25'7 7.1
2014-Sep-30 14:33N 37°49' W 122°20'0 0.0
2014-Sep-30 13:33N 37°49' W 122°20'3 3.1
2014-Sep-30 12:34N 37°48' W 122°23'0 0.4
2014-Sep-30 11:33N 37°48' W 122°24'0 0.0
2014-Sep-30 10:33N 37°48' W 122°24'0 0.0
2014-Sep-30 09:33N 37°48' W 122°24'0 0.0
2014-Sep-30 08:33N 37°48' W 122°24'0 0.0
2014-Sep-30 07:33N 37°48' W 122°24'0 0.0
2014-Sep-30 06:33N 37°48' W 122°24'5 4.7
2014-Sep-30 05:33N 37°53' W 122°25'9 9.3
2014-Sep-30 04:33N 38°02' W 122°22'11 9.6
2014-Sep-30 03:26N 38°02' W 122°08'4 0.7
2014-Sep-29 21:30N 38°04' W 122°13'9 9.7
2014-Sep-29 20:33N 38°01' W 122°24'5 5.3
2014-Sep-29 19:33N 37°55' W 122°25'0 0.2
2014-Sep-29 18:33N 37°55' W 122°25'0 0.0
2014-Sep-29 17:33N 37°55' W 122°25'0 0.0
2014-Sep-29 16:33N 37°55' W 122°25'0 0.0
2014-Sep-29 15:33N 37°55' W 122°25'0 0.1
2014-Sep-29 14:33N 37°55' W 122°25'2 2.3
2014-Sep-29 13:33N 37°53' W 122°25'9 9.5
2014-Sep-29 12:33N 37°44' W 122°20'2 1.9
2014-Sep-29 11:33N 37°45' W 122°23'2 1.6
2014-Sep-29 10:33N 37°45' W 122°21'1 0.7
2014-Sep-29 09:33N 37°46' W 122°20'4 3.6
2014-Sep-29 08:33N 37°48' W 122°24'6 5.7
2014-Sep-29 07:33N 37°48' W 122°31'1 1.1
2014-Sep-29 06:33N 37°48' W 122°29'1 0.9
2014-Sep-29 05:33N 37°49' W 122°29'4 4.0
2014-Sep-29 04:33N 37°48' W 122°24'0 0.0
2014-Sep-29 03:33N 37°48' W 122°24'4 4.1
2014-Sep-29 02:33N 37°48' W 122°19'0 0.2
2014-Sep-29 01:33N 37°48' W 122°19'2 1.5
2014-Sep-29 00:33N 37°48' W 122°21'2 2.4
2014-Sep-28 23:33N 37°48' W 122°24'0 0.0
2014-Sep-28 22:33N 37°48' W 122°24'0 0.0
2014-Sep-28 21:33N 37°48' W 122°24'0 0.0
2014-Sep-28 20:33N 37°48' W 122°24'0 0.0
2014-Sep-28 19:33N 37°48' W 122°24'0 0.0
2014-Sep-28 18:33N 37°48' W 122°24'0 0.0
2014-Sep-28 17:33N 37°48' W 122°24'0 0.0
2014-Sep-28 16:33N 37°48' W 122°24'0 0.0
2014-Sep-28 15:33N 37°48' W 122°24'1 0.5
2014-Sep-28 14:33N 37°48' W 122°23'3 2.8
2014-Sep-28 13:33N 37°48' W 122°20'3 3.2
2014-Sep-28 12:33N 37°48' W 122°24'4 3.8
2014-Sep-28 11:33N 37°52' W 122°24'3 3.5
2014-Sep-28 10:33N 37°55' W 122°25'6 6.1
2014-Sep-28 09:33N 37°49' W 122°24'3 3.3
2014-Sep-28 08:33N 37°47' W 122°21'2 2.1
2014-Sep-28 07:33N 37°45' W 122°23'1 1.2
2014-Sep-28 06:33N 37°45' W 122°21'2 1.6
2014-Sep-28 05:33N 37°46' W 122°22'7 7.3
2014-Sep-28 04:33N 37°48' W 122°31'4 3.5
2014-Sep-28 03:33N 37°49' W 122°27'6 5.7
2014-Sep-28 02:33N 37°49' W 122°19'0 0.2
2014-Sep-28 01:34N 37°49' W 122°20'0 0.1
2014-Sep-28 00:33N 37°49' W 122°20'3 3.1
2014-Sep-27 23:34N 37°48' W 122°24'0 0.4
2014-Sep-27 22:33N 37°48' W 122°24'0 0.0
2014-Sep-27 21:33N 37°48' W 122°24'0 0.0
2014-Sep-27 20:33N 37°48' W 122°24'3 3.2
2014-Sep-27 19:34N 37°51' W 122°25'8 8.4
2014-Sep-27 18:33N 37°60' W 122°25'9 6.8
2014-Sep-27 17:15N 38°04' W 122°14'2 2.5
2014-Sep-27 16:26N 38°04' W 122°17'8 0.3
2014-Sep-26 10:25N 38°02' W 122°08'4 0.9
2014-Sep-26 05:30N 38°04' W 122°13'1 0.0
2014-Sep-24 20:12N 38°04' W 122°14'0 0.0
2014-Sep-23 20:06N 38°04' W 122°13'610.2
2014-Sep-23 19:33N 38°03' W 122°20'9 8.6
2014-Sep-23 18:33N 37°55' W 122°25'1 0.6
2014-Sep-23 17:33N 37°56' W 122°25'0 0.1
2014-Sep-23 16:33N 37°56' W 122°25'4 3.5
2014-Sep-23 15:33N 37°52' W 122°24'5 4.9
2014-Sep-23 14:33N 37°49' W 122°20'1 0.7
2014-Sep-23 13:33N 37°49' W 122°19'3 3.0
2014-Sep-23 12:34N 37°48' W 122°23'1 1.0
2014-Sep-23 11:33N 37°48' W 122°24'0 0.0
2014-Sep-23 10:33N 37°48' W 122°24'0 0.0
2014-Sep-23 09:33N 37°48' W 122°24'0 0.0
2014-Sep-23 08:33N 37°48' W 122°24'0 0.0
2014-Sep-23 07:33N 37°48' W 122°24'0 0.0
2014-Sep-23 06:33N 37°48' W 122°24'0 0.0
2014-Sep-23 05:33N 37°48' W 122°24'0 0.0
2014-Sep-23 04:33N 37°48' W 122°24'0 0.0
2014-Sep-23 03:33N 37°48' W 122°24'0 0.0
2014-Sep-23 02:33N 37°48' W 122°24'4 4.0
2014-Sep-23 01:34N 37°48' W 122°19'0 0.1
2014-Sep-23 00:33N 37°48' W 122°19'3 2.9
2014-Sep-22 23:33N 37°48' W 122°22'1110.8
2014-Sep-22 22:33N 37°59' W 122°26'11 2.7
2014-Sep-22 18:28N 38°04' W 122°13'2 0.4
2014-Sep-22 13:23N 38°03' W 122°11'2 0.4
2014-Sep-22 07:28N 38°02' W 122°08'0 0.0
2014-Sep-22 06:14N 38°02' W 122°08'14 2.5
2014-Sep-22 00:23N 38°02' W 121°50'  

Dump ship's entire track history